Time;durP1;ratioP1;P1;durP2;ratioP2;P2;SDS_P1;SDS_P2;PMS_P1;PMS_P2;Temp;Humidity;BMP_temperature;BMP_pressure;BME280_temperature;BME280_humidity;BME280_pressure;Samples;Min_cycle;Max_cycle;Signal;HPM_P1;HPM_P2
2022/04/26 03:36:10;;;;;;;0.70;0.50;;;10.80;99.90;;;;;;5015866;28;20446;-70
2022/04/26 03:38:43;;;;;;;1.00;0.60;;;10.90;99.90;;;;;;5015589;28;20420;-69
2022/04/26 03:41:09;;;;;;;0.80;0.60;;;10.90;99.90;;;;;;5015741;28;20156;-71
2022/04/26 03:43:35;;;;;;;0.70;0.50;;;10.90;99.90;;;;;;5015577;28;20402;-71
2022/04/26 03:46:00;;;;;;;0.70;0.50;;;11.00;99.90;;;;;;5015546;28;20501;-71
2022/04/26 03:48:26;;;;;;;0.70;0.50;;;11.00;99.90;;;;;;5014211;28;20208;-70
2022/04/26 03:50:52;;;;;;;0.70;0.50;;;11.00;99.90;;;;;;5015250;28;20245;-71
2022/04/26 03:53:17;;;;;;;0.70;0.50;;;11.00;99.90;;;;;;5015344;28;20700;-71
2022/04/26 03:55:43;;;;;;;0.70;0.50;;;11.00;99.90;;;;;;5014704;28;20192;-71
2022/04/26 03:58:08;;;;;;;0.70;0.53;;;11.00;99.90;;;;;;5015528;28;20547;-70
2022/04/26 04:00:34;;;;;;;0.70;0.50;;;11.00;99.90;;;;;;5016186;28;20538;-70
2022/04/26 04:03:00;;;;;;;0.70;0.50;;;11.00;99.90;;;;;;5017054;28;20226;-70
2022/04/26 04:05:26;;;;;;;0.70;0.50;;;11.00;99.90;;;;;;5016404;28;20172;-70
2022/04/26 04:07:51;;;;;;;0.70;0.60;;;11.00;99.90;;;;;;5015635;28;20927;-71
2022/04/26 04:10:17;;;;;;;0.70;0.50;;;11.00;99.90;;;;;;5014986;28;20254;-71
2022/04/26 04:12:42;;;;;;;0.70;0.50;;;11.00;99.90;;;;;;5015742;28;20196;-70
2022/04/26 04:15:09;;;;;;;0.70;0.60;;;11.00;99.90;;;;;;5015432;28;20523;-71
2022/04/26 04:17:34;;;;;;;0.70;0.50;;;11.00;99.90;;;;;;5015394;28;20204;-71
2022/04/26 04:20:00;;;;;;;0.70;0.50;;;11.00;99.90;;;;;;5014995;28;20411;-71
2022/04/26 04:22:26;;;;;;;0.70;0.50;;;11.00;99.90;;;;;;5013892;28;20230;-71
2022/04/26 04:24:51;;;;;;;0.70;0.50;;;11.00;99.90;;;;;;5015108;28;20172;-71
2022/04/26 04:27:17;;;;;;;0.70;0.50;;;11.00;99.90;;;;;;5015142;28;20188;-71
2022/04/26 04:29:44;;;;;;;0.70;0.50;;;11.00;99.90;;;;;;5015031;28;20231;-71
2022/04/26 04:32:09;;;;;;;0.70;0.50;;;11.00;99.90;;;;;;5015219;28;20164;-71
2022/04/26 04:34:35;;;;;;;0.70;0.50;;;11.10;99.90;;;;;;5013732;28;20411;-70
2022/04/26 04:37:00;;;;;;;0.70;0.50;;;11.10;99.90;;;;;;5014354;28;20558;-71
2022/04/26 04:39:27;;;;;;;0.70;0.50;;;11.10;99.90;;;;;;5014555;28;20180;-71
2022/04/26 04:41:52;;;;;;;1.13;1.00;;;11.10;99.90;;;;;;5015009;28;20227;-71
2022/04/26 04:44:19;;;;;;;0.70;0.50;;;11.20;99.90;;;;;;5014383;28;20826;-70
2022/04/26 04:46:45;;;;;;;0.70;0.50;;;11.20;99.90;;;;;;5015846;28;20786;-70
2022/04/26 04:49:11;;;;;;;0.70;0.50;;;11.20;99.90;;;;;;5016005;28;20459;-70
2022/04/26 04:51:37;;;;;;;0.73;0.53;;;11.20;99.90;;;;;;5015820;28;20987;-70
2022/04/26 04:54:04;;;;;;;0.80;0.70;;;11.20;99.90;;;;;;5014890;28;20183;-72
2022/04/26 04:56:31;;;;;;;1.30;0.73;;;11.30;99.90;;;;;;5014269;28;20967;-70
2022/04/26 04:58:56;;;;;;;0.70;0.50;;;11.20;99.90;;;;;;5015756;28;20761;-71
2022/04/26 05:01:22;;;;;;;0.70;0.50;;;11.30;99.90;;;;;;5015927;28;20415;-70
2022/04/26 05:03:47;;;;;;;1.40;0.70;;;11.30;99.90;;;;;;5015832;28;20547;-71
2022/04/26 05:06:14;;;;;;;1.97;1.37;;;11.30;99.90;;;;;;5014896;28;20180;-71
2022/04/26 05:08:41;;;;;;;0.73;0.60;;;11.30;99.90;;;;;;5015047;28;20286;-71
2022/04/26 05:11:07;;;;;;;1.13;0.93;;;11.30;99.90;;;;;;5015382;28;20403;-71
2022/04/26 05:13:32;;;;;;;1.43;0.93;;;11.30;99.90;;;;;;5014089;28;20414;-71
2022/04/26 05:15:58;;;;;;;0.90;0.90;;;11.40;99.90;;;;;;5014236;28;20172;-70
2022/04/26 05:18:24;;;;;;;0.93;0.70;;;11.40;99.90;;;;;;5015787;28;20196;-71
2022/04/26 05:20:49;;;;;;;2.17;1.97;;;11.40;99.90;;;;;;5014128;28;20254;-71
2022/04/26 05:25:59;;;;;;;1.10;1.00;;;11.50;99.90;;;;;;5015773;28;20250;-71
2022/04/26 05:28:24;;;;;;;2.07;1.43;;;11.40;99.90;;;;;;5015730;28;20427;-71
2022/04/26 05:30:54;;;;;;;1.43;1.07;;;11.40;99.90;;;;;;5015572;28;20170;-71
2022/04/26 05:33:21;;;;;;;1.07;0.90;;;11.50;99.90;;;;;;5014163;28;20209;-71
2022/04/26 05:35:47;;;;;;;1.20;0.83;;;11.50;99.90;;;;;;5014755;28;20402;-72
2022/04/26 05:38:13;;;;;;;0.70;0.50;;;11.50;99.90;;;;;;5015670;28;20455;-71
2022/04/26 05:40:39;;;;;;;6.63;1.37;;;11.50;99.90;;;;;;5014747;28;20399;-71
2022/04/26 05:43:04;;;;;;;0.90;0.80;;;11.60;99.90;;;;;;5014020;28;20226;-71
2022/04/26 05:45:30;;;;;;;0.80;0.70;;;11.60;99.90;;;;;;5013653;28;20191;-71
2022/04/26 05:47:56;;;;;;;1.63;1.50;;;11.60;99.90;;;;;;5013285;28;20527;-70
2022/04/26 05:50:21;;;;;;;0.70;0.60;;;11.60;99.90;;;;;;5013295;28;20273;-69
2022/04/26 05:52:47;;;;;;;1.77;1.67;;;11.60;99.90;;;;;;5011976;28;20168;-70
2022/04/26 05:55:12;;;;;;;2.47;2.37;;;11.70;99.90;;;;;;5013115;28;20191;-70
2022/04/26 05:57:39;;;;;;;3.67;1.30;;;11.70;99.90;;;;;;5013367;28;20277;-70
2022/04/26 06:00:06;;;;;;;1.70;1.33;;;11.70;99.90;;;;;;5013100;28;20172;-70
2022/04/26 06:02:32;;;;;;;1.83;1.17;;;11.80;99.90;;;;;;5013019;28;20411;-71
2022/04/26 06:04:58;;;;;;;3.27;0.80;;;11.80;99.90;;;;;;5013268;28;20414;-71
2022/04/26 06:07:23;;;;;;;1.23;1.13;;;11.90;99.90;;;;;;5013252;28;20514;-71
2022/04/26 06:09:53;;;;;;;4.10;2.00;;;11.90;99.90;;;;;;5013041;28;20274;-71
2022/04/26 06:12:19;;;;;;;5.67;2.67;;;12.00;99.90;;;;;;5013515;28;20164;-71
2022/04/26 06:14:44;;;;;;;1.27;1.17;;;12.00;99.90;;;;;;5012805;28;20414;-71
2022/04/26 06:17:10;;;;;;;1.50;0.90;;;11.90;99.90;;;;;;5013097;28;20427;-71
2022/04/26 06:19:36;;;;;;;0.90;0.70;;;11.90;99.90;;;;;;5017165;28;20169;-71
2022/04/26 06:22:01;;;;;;;0.70;0.60;;;11.90;99.90;;;;;;5016927;28;20203;-71
2022/04/26 06:24:28;;;;;;;1.37;1.17;;;11.90;99.90;;;;;;5016628;28;20606;-70
2022/04/26 06:26:53;;;;;;;0.80;0.60;;;11.90;99.90;;;;;;5016944;28;20187;-70
2022/04/26 06:29:19;;;;;;;0.90;0.67;;;11.90;99.90;;;;;;5018460;28;20446;-70
2022/04/26 06:31:44;;;;;;;1.40;1.00;;;11.90;99.90;;;;;;5036463;28;20569;-70
2022/04/26 06:34:10;;;;;;;1.40;0.80;;;11.90;99.90;;;;;;5036494;28;20155;-71
2022/04/26 06:36:35;;;;;;;1.40;1.30;;;11.90;99.90;;;;;;5036492;28;20632;-70
2022/04/26 06:39:01;;;;;;;0.80;0.80;;;11.90;99.90;;;;;;5036526;28;20550;-70
2022/04/26 06:41:26;;;;;;;0.80;0.70;;;11.90;99.90;;;;;;5036155;28;20164;-70
2022/04/26 06:43:52;;;;;;;1.47;1.37;;;11.90;99.90;;;;;;5051415;28;20182;-70
2022/04/26 06:46:17;;;;;;;4.10;1.70;;;11.90;99.90;;;;;;5034555;28;20640;-70
2022/04/26 06:48:48;;;;;;;1.17;0.87;;;11.90;99.90;;;;;;5036396;28;20246;-70
2022/04/26 06:51:17;;;;;;;2.97;0.90;;;11.90;99.90;;;;;;5036331;28;20169;-71
2022/04/26 06:53:42;;;;;;;0.80;0.60;;;11.90;99.90;;;;;;5035716;28;20404;-70
2022/04/26 06:56:08;;;;;;;0.90;0.60;;;11.90;99.90;;;;;;5034944;28;20402;-70
2022/04/26 06:58:33;;;;;;;1.00;0.90;;;11.80;99.90;;;;;;5034756;28;20218;-70
2022/04/26 07:01:02;;;;;;;1.53;1.40;;;11.80;99.90;;;;;;5034814;28;20211;-70
2022/04/26 07:03:28;;;;;;;2.13;1.73;;;11.80;99.90;;;;;;5035758;28;20250;-71
2022/04/26 07:05:54;;;;;;;0.90;0.70;;;11.80;99.90;;;;;;5035822;28;20843;-70
2022/04/26 07:08:19;;;;;;;1.07;0.97;;;11.80;99.90;;;;;;5034419;28;20191;-70
2022/04/26 07:10:45;;;;;;;1.90;1.17;;;11.80;99.90;;;;;;5034480;28;20180;-70
2022/04/26 07:13:11;;;;;;;2.50;1.23;;;11.80;99.90;;;;;;5034329;28;20516;-72
2022/04/26 07:15:36;;;;;;;1.37;0.60;;;11.90;99.90;;;;;;5034475;28;20218;-71
2022/04/26 07:18:02;;;;;;;4.53;1.20;;;11.90;99.90;;;;;;5035152;28;20441;-71
2022/04/26 07:20:30;;;;;;;1.23;1.13;;;11.90;99.90;;;;;;5035758;28;20176;-71
2022/04/26 07:22:55;;;;;;;0.80;0.60;;;11.90;99.90;;;;;;5035711;28;20172;-72
2022/04/26 07:25:21;;;;;;;1.57;0.80;;;12.00;99.90;;;;;;5035526;28;20422;-71
2022/04/26 07:27:46;;;;;;;2.80;1.10;;;12.00;99.90;;;;;;5035675;28;20430;-71
2022/04/26 07:30:13;;;;;;;1.30;1.20;;;12.00;99.90;;;;;;5035339;28;20206;-71
2022/04/26 07:35:23;;;;;;;5.07;1.83;;;12.20;99.90;;;;;;5035400;28;20401;-71
2022/04/26 07:37:48;;;;;;;2.90;2.03;;;12.40;99.90;;;;;;5035247;28;20430;-71
2022/04/26 07:40:14;;;;;;;1.53;1.37;;;12.60;99.90;;;;;;5035230;28;20179;-71
2022/04/26 07:42:39;;;;;;;3.83;1.10;;;12.70;99.90;;;;;;5035214;28;20657;-71
2022/04/26 07:45:06;;;;;;;4.70;1.50;;;12.90;99.90;;;;;;5034934;28;20632;-71
2022/04/26 07:47:31;;;;;;;0.77;0.63;;;13.00;99.90;;;;;;5035052;28;20187;-71
2022/04/26 07:49:58;;;;;;;0.97;0.80;;;13.20;99.90;;;;;;5034794;28;20458;-71
2022/04/26 07:52:24;;;;;;;2.50;1.00;;;13.30;99.90;;;;;;5034743;28;20545;-71
2022/04/26 07:54:50;;;;;;;0.80;0.60;;;13.40;99.90;;;;;;5034434;28;20422;-71
2022/04/26 07:57:16;;;;;;;1.93;0.70;;;13.50;99.90;;;;;;5034969;28;20198;-71
2022/04/26 07:59:41;;;;;;;1.10;1.00;;;13.50;99.90;;;;;;5034893;28;20486;-71
2022/04/26 08:02:08;;;;;;;1.77;1.37;;;13.50;99.90;;;;;;5050010;28;20599;-70
2022/04/26 08:04:34;;;;;;;4.20;1.80;;;13.60;99.90;;;;;;5034765;28;20179;-71
2022/04/26 08:07:02;;;;;;;1.13;1.03;;;13.60;99.90;;;;;;5034305;28;20418;-71
2022/04/26 08:09:28;;;;;;;1.50;1.40;;;13.60;99.90;;;;;;5033111;28;20242;-71
2022/04/26 08:11:53;;;;;;;2.20;2.00;;;13.60;99.90;;;;;;5034264;28;20403;-70
2022/04/26 08:14:20;;;;;;;3.70;2.20;;;13.80;99.90;;;;;;5049398;28;20170;-70
2022/04/26 08:16:45;;;;;;;2.90;2.20;;;14.10;99.90;;;;;;5034110;28;20322;-71
2022/04/26 08:19:11;;;;;;;8.80;2.50;;;14.40;99.90;;;;;;5034134;28;20493;-71
2022/04/26 08:21:37;;;;;;;2.73;2.40;;;14.60;99.90;;;;;;5033083;28;20171;-71
2022/04/26 08:29:31;;;;;;;3.57;1.73;;;14.80;99.90;;;;;;5034114;28;20460;-71
2022/04/26 08:31:57;;;;;;;2.13;1.43;;;14.90;99.90;;;;;;5034100;28;20399;-71
2022/04/26 08:34:23;;;;;;;1.70;1.50;;;14.90;99.90;;;;;;5033966;28;20189;-71
2022/04/26 08:36:48;;;;;;;2.13;0.97;;;14.90;99.90;;;;;;5033881;28;20733;-71
2022/04/26 08:39:14;;;;;;;2.13;1.60;;;14.90;99.90;;;;;;5032829;28;20410;-70
2022/04/26 08:41:40;;;;;;;6.23;1.23;;;14.90;99.90;;;;;;5032442;28;20206;-71
2022/04/26 08:44:10;;;;;;;2.20;2.00;;;14.90;99.90;;;;;;5033514;28;20987;-72
2022/04/26 08:52:06;;;;;;;2.20;1.53;;;15.10;99.90;;;;;;5033980;28;20401;-71
2022/04/26 08:54:32;;;;;;;1.37;1.27;;;15.10;99.90;;;;;;5033621;28;20767;-70
2022/04/26 08:56:58;;;;;;;2.00;1.80;;;15.20;99.90;;;;;;5033350;28;20428;-70
2022/04/26 08:59:23;;;;;;;2.60;1.57;;;15.20;99.90;;;;;;5033224;28;20179;-71
2022/04/26 09:01:49;;;;;;;2.83;1.43;;;15.10;99.90;;;;;;5033478;28;20402;-71
2022/04/26 09:04:17;;;;;;;2.60;1.90;;;15.00;99.90;;;;;;5033290;28;20599;-71
2022/04/26 09:06:45;;;;;;;2.40;2.20;;;14.90;99.90;;;;;;5033518;28;20501;-71
2022/04/26 09:09:21;;;;;;;1.80;1.03;;;14.80;99.90;;;;;;5033315;28;20457;-72
2022/04/26 09:11:47;;;;;;;3.23;1.63;;;14.70;99.90;;;;;;5033099;28;20485;-71
2022/04/26 09:14:34;;;;;;;2.60;1.80;;;14.60;99.90;;;;;;5030661;28;20422;-70
2022/04/26 09:17:08;;;;;;;1.87;1.43;;;14.50;99.90;;;;;;5032152;28;20540;-71
2022/04/26 09:19:48;;;;;;;2.37;2.07;;;14.40;99.90;;;;;;5032620;28;20437;-71
2022/04/26 09:22:19;;;;;;;1.43;1.33;;;14.30;99.90;;;;;;5033265;28;20406;-70
2022/04/26 09:24:54;;;;;;;0.80;0.67;;;14.20;99.90;;;;;;5031897;28;20413;-70
2022/04/26 09:27:20;;;;;;;1.17;1.07;;;14.10;99.90;;;;;;5031942;28;20775;-70
2022/04/26 09:29:49;;;;;;;1.53;1.43;;;14.10;99.90;;;;;;5032112;28;20457;-70
2022/04/26 09:32:15;;;;;;;2.40;0.83;;;14.00;99.90;;;;;;5044666;28;20246;-72
2022/04/26 09:34:41;;;;;;;5.90;0.90;;;14.00;99.90;;;;;;5036223;28;20805;-71
2022/04/26 09:37:07;;;;;;;1.23;1.10;;;14.10;99.90;;;;;;5041532;28;20434;-71
2022/04/26 09:39:33;;;;;;;2.20;2.00;;;14.10;99.90;;;;;;5051477;28;20172;-71
2022/04/26 09:41:58;;;;;;;2.10;1.27;;;14.20;99.90;;;;;;5047283;28;20656;-71
2022/04/26 09:44:31;;;;;;;0.90;0.70;;;14.30;99.90;;;;;;5035884;28;20186;-71
2022/04/26 09:46:57;;;;;;;0.97;0.77;;;14.40;99.90;;;;;;5049575;28;20194;-72
2022/04/26 09:49:26;;;;;;;2.90;1.20;;;14.60;99.90;;;;;;5050096;28;20461;-72
2022/04/26 09:51:59;;;;;;;2.20;1.47;;;14.70;99.90;;;;;;5044057;28;20442;-71
2022/04/26 09:54:25;;;;;;;1.73;1.37;;;14.90;99.90;;;;;;5034074;28;20790;-71
2022/04/26 09:56:51;;;;;;;1.23;1.13;;;15.10;99.90;;;;;;5035893;28;20418;-71
2022/04/26 09:59:27;;;;;;;2.40;1.27;;;15.30;99.90;;;;;;5034574;28;20907;-71
2022/04/26 10:01:58;;;;;;;1.80;1.70;;;15.50;99.90;;;;;;5035505;28;20414;-71
2022/04/26 10:04:29;;;;;;;1.77;1.67;;;15.60;99.90;;;;;;5036446;28;20394;-71
2022/04/26 10:07:03;;;;;;;2.23;1.53;;;15.70;99.90;;;;;;5037227;28;20440;-71
2022/04/26 10:09:29;;;;;;;4.30;0.90;;;15.60;99.90;;;;;;5036622;28;20445;-71
2022/04/26 10:11:57;;;;;;;2.70;2.17;;;15.60;99.90;;;;;;5035711;28;20449;-71
2022/04/26 10:14:25;;;;;;;1.10;1.00;;;15.60;99.90;;;;;;5035480;28;20929;-70
2022/04/26 10:16:50;;;;;;;1.60;1.10;;;15.60;99.90;;;;;;5035851;28;20418;-71
2022/04/26 10:19:16;;;;;;;0.97;0.80;;;15.60;99.90;;;;;;5035635;28;20489;-70
2022/04/26 10:21:41;;;;;;;1.00;0.70;;;15.60;99.90;;;;;;5035591;28;20206;-70
2022/04/26 10:24:23;;;;;;;2.40;2.20;;;15.70;99.90;;;;;;5034997;28;20218;-71
2022/04/26 10:26:50;;;;;;;3.43;1.00;;;15.80;99.90;;;;;;5035328;28;20587;-71
2022/04/26 10:29:21;;;;;;;4.90;3.00;;;16.00;99.90;;;;;;5032470;28;20450;-70
2022/04/26 10:31:56;;;;;;;2.43;1.17;;;16.30;99.90;;;;;;5026840;28;20505;-71
2022/04/26 10:34:26;;;;;;;2.30;1.47;;;16.60;99.90;;;;;;5033383;28;20525;-69
2022/04/26 10:36:54;;;;;;;2.80;2.10;;;16.90;99.90;;;;;;5033137;28;20446;-70
2022/04/26 10:39:24;;;;;;;3.00;2.40;;;17.30;99.90;;;;;;5033380;28;20493;-71
2022/04/26 10:41:50;;;;;;;4.70;3.27;;;17.70;99.90;;;;;;5027218;28;20406;-70
2022/04/26 10:44:16;;;;;;;2.87;2.10;;;18.10;99.90;;;;;;5046494;28;20409;-71
2022/04/26 10:47:02;;;;;;;1.83;1.33;;;18.40;99.90;;;;;;5052799;28;20464;-70
2022/04/26 10:49:42;;;;;;;2.30;1.53;;;18.50;99.90;;;;;;5042630;28;20234;-71
2022/04/26 10:52:22;;;;;;;1.40;1.30;;;18.60;99.90;;;;;;5041198;28;20866;-71
2022/04/26 10:55:01;;;;;;;2.07;1.50;;;18.50;99.90;;;;;;5035655;28;20426;-71
2022/04/26 10:57:48;;;;;;;1.13;1.03;;;18.50;99.90;;;;;;5034886;28;20461;-69
2022/04/26 11:00:19;;;;;;;1.00;0.80;;;18.30;99.90;;;;;;5036533;28;20468;-71
2022/04/26 11:02:50;;;;;;;1.37;1.07;;;18.30;99.90;;;;;;5051436;28;20911;-71
2022/04/26 11:05:16;;;;;;;3.37;1.87;;;18.20;99.90;;;;;;5051331;28;20799;-70
2022/04/26 11:07:44;;;;;;;2.30;2.10;;;18.20;99.90;;;;;;5049222;28;20446;-70
2022/04/26 11:10:11;;;;;;;2.07;1.60;;;18.10;99.90;;;;;;5051518;28;20488;-71
2022/04/26 11:12:38;;;;;;;2.33;1.37;;;18.10;99.90;;;;;;5051779;28;20509;-70
2022/04/26 11:15:15;;;;;;;2.27;1.40;;;18.00;99.90;;;;;;5051125;28;20403;-69
2022/04/26 11:17:42;;;;;;;2.40;2.30;;;18.00;99.90;;;;;;5050941;28;20465;-72
2022/04/26 11:20:13;;;;;;;1.43;1.07;;;18.00;99.90;;;;;;5034684;28;20446;-71
2022/04/26 11:22:50;;;;;;;2.10;1.90;;;18.00;99.90;;;;;;5038391;28;20423;-71
2022/04/26 11:28:11;;;;;;;3.83;2.50;;;18.10;99.90;;;;;;5033176;28;20454;-72
2022/04/26 11:30:43;;;;;;;1.10;1.00;;;18.20;99.90;;;;;;5022448;28;20827;-70
2022/04/26 11:33:23;;;;;;;4.30;1.47;;;18.40;99.90;;;;;;5017551;28;20426;-70
2022/04/26 11:36:00;;;;;;;2.13;1.93;;;18.70;99.90;;;;;;5014350;28;20477;-71
2022/04/26 11:38:27;;;;;;;2.40;2.00;;;19.20;99.90;;;;;;5027857;28;20482;-70
2022/04/26 11:40:54;;;;;;;2.20;1.63;;;19.80;99.90;;;;;;5033870;28;20973;-71
2022/04/26 11:43:22;;;;;;;1.67;1.30;;;20.30;99.90;;;;;;5035213;28;20780;-71
2022/04/26 11:45:51;;;;;;;1.57;1.47;;;20.90;99.90;;;;;;5034568;28;20422;-71
2022/04/26 11:48:18;;;;;;;2.23;1.77;;;21.60;99.90;;;;;;5035343;28;20461;-71
2022/04/26 11:50:46;;;;;;;1.77;1.37;;;22.80;99.90;;;;;;5029389;28;20465;-69
2022/04/26 11:53:20;;;;;;;1.90;1.60;;;24.10;99.90;;;;;;5027036;28;20458;-71
2022/04/26 11:56:00;;;;;;;2.07;1.87;;;24.70;99.90;;;;;;5014136;28;20435;-70
2022/04/26 11:58:38;;;;;;;2.10;1.90;;;25.20;99.90;;;;;;5015398;28;20419;-70
2022/04/26 12:01:12;;;;;;;2.03;1.83;;;26.60;99.90;;;;;;5023547;28;20472;-70
2022/04/26 12:03:52;;;;;;;2.60;1.37;;;27.60;99.90;;;;;;5030251;28;20422;-69
2022/04/26 12:06:34;;;;;;;2.87;2.33;;;28.30;99.90;;;;;;5030148;28;20410;-71
2022/04/26 12:09:05;;;;;;;1.67;1.57;;;29.30;99.90;;;;;;5041817;28;20481;-70
2022/04/26 12:11:38;;;;;;;2.50;2.30;;;30.10;99.90;;;;;;5068683;28;20418;-72
2022/04/26 12:14:07;;;;;;;2.13;1.93;;;30.50;96.90;;;;;;5052068;28;20410;-71
2022/04/26 12:16:44;;;;;;;1.63;1.37;;;30.80;92.30;;;;;;5065151;28;20442;-70
2022/04/26 12:19:10;;;;;;;2.10;1.90;;;31.10;90.10;;;;;;5031320;28;20954;-70
2022/04/26 12:21:54;;;;;;;2.47;1.77;;;30.90;82.50;;;;;;5013478;28;20454;-70
2022/04/26 12:24:29;;;;;;;1.80;1.60;;;31.20;82.00;;;;;;5013388;28;20398;-71
2022/04/26 12:27:16;;;;;;;1.73;1.63;;;31.70;76.30;;;;;;5026040;28;20518;-71
2022/04/26 12:29:44;;;;;;;2.27;2.07;;;32.10;73.00;;;;;;5031165;28;20518;-71
2022/04/26 12:32:15;;;;;;;3.97;1.73;;;32.90;69.20;;;;;;5031543;28;20411;-71
2022/04/26 12:34:58;;;;;;;2.20;2.00;;;33.30;66.70;;;;;;5028904;28;20439;-72
2022/04/26 12:37:29;;;;;;;1.90;1.67;;;35.10;64.10;;;;;;5023371;28;20434;-72
2022/04/26 12:40:00;;;;;;;2.23;2.13;;;37.00;59.70;;;;;;5027159;28;20442;-70
2022/04/26 12:42:30;;;;;;;2.87;2.57;;;38.40;56.10;;;;;;5028705;28;20447;-70
2022/04/26 12:45:04;;;;;;;1.97;1.87;;;39.80;52.60;;;;;;5030776;28;20414;-71
2022/04/26 12:50:36;;;;;;;1.70;1.60;;;40.60;48.20;;;;;;5022187;28;20494;-70
2022/04/26 12:53:04;;;;;;;2.00;1.80;;;41.50;46.70;;;;;;5014057;28;20402;-70
2022/04/26 12:55:36;;;;;;;2.67;2.47;;;42.10;45.30;;;;;;5012467;28;20437;-70
2022/04/26 12:58:03;;;;;;;1.83;1.73;;;42.90;43.70;;;;;;5014080;28;20419;-70
2022/04/26 13:00:30;;;;;;;1.70;1.60;;;43.50;41.90;;;;;;5013688;28;20414;-71
2022/04/26 13:02:58;;;;;;;1.60;1.50;;;44.10;40.70;;;;;;5013711;28;20411;-71
2022/04/26 13:05:24;;;;;;;1.93;1.60;;;44.70;39.80;;;;;;5012160;28;20415;-70
2022/04/26 13:07:50;;;;;;;1.73;1.63;;;45.20;38.70;;;;;;5013448;28;20492;-70
2022/04/26 13:10:17;;;;;;;1.57;1.47;;;45.10;38.20;;;;;;5013467;28;20207;-70
2022/04/26 13:12:43;;;;;;;1.83;1.73;;;44.80;37.00;;;;;;5011830;28;20199;-70
2022/04/26 13:15:09;;;;;;;1.50;1.40;;;44.30;36.30;;;;;;5013376;28;20747;-71
2022/04/26 13:17:36;;;;;;;1.57;1.47;;;43.90;36.10;;;;;;5012004;28;20423;-71
2022/04/26 13:20:06;;;;;;;2.30;2.10;;;44.30;36.00;;;;;;5013696;28;20904;-71
2022/04/26 13:22:36;;;;;;;1.70;1.60;;;44.50;35.80;;;;;;5013848;28;20474;-70
2022/04/26 13:25:03;;;;;;;2.40;2.20;;;43.90;34.80;;;;;;5012259;28;20919;-70
2022/04/26 13:27:30;;;;;;;1.73;1.50;;;43.50;34.60;;;;;;5013702;28;20441;-71
2022/04/26 13:29:56;;;;;;;1.70;1.60;;;42.40;33.80;;;;;;5012809;28;20967;-71
2022/04/26 13:32:21;;;;;;;2.17;1.63;;;41.00;33.60;;;;;;5012298;28;20453;-71
2022/04/26 13:34:48;;;;;;;1.93;1.80;;;40.20;34.20;;;;;;5012315;28;20226;-71
2022/04/26 13:37:17;;;;;;;1.43;1.33;;;40.00;34.80;;;;;;5012261;28;20685;-71
2022/04/26 13:39:45;;;;;;;1.60;1.50;;;40.00;35.00;;;;;;5012221;28;20415;-71
2022/04/26 13:42:11;;;;;;;1.50;1.27;;;40.20;35.10;;;;;;5012268;28;20403;-71
2022/04/26 13:44:37;;;;;;;2.10;1.83;;;39.90;34.90;;;;;;5012015;28;20501;-71
2022/04/26 13:47:05;;;;;;;1.57;1.47;;;39.70;34.90;;;;;;5012085;28;20439;-71
2022/04/26 13:49:39;;;;;;;1.47;1.37;;;39.60;34.90;;;;;;5025696;28;20458;-71
2022/04/26 13:52:06;;;;;;;2.23;1.80;;;39.30;34.50;;;;;;5010289;28;20494;-71
2022/04/26 13:54:33;;;;;;;1.40;1.30;;;39.00;34.40;;;;;;5025431;28;20426;-71
2022/04/26 13:56:59;;;;;;;1.53;1.43;;;38.40;34.20;;;;;;5032123;28;20916;-72
2022/04/26 13:59:25;;;;;;;2.10;1.90;;;37.50;34.20;;;;;;5029997;28;20454;-71
2022/04/26 14:01:55;;;;;;;1.57;1.40;;;36.50;34.40;;;;;;5020499;28;20184;-72
2022/04/26 14:04:23;;;;;;;2.03;1.83;;;35.30;34.60;;;;;;5023639;28;20417;-69
2022/04/26 14:06:49;;;;;;;1.33;1.23;;;34.10;35.10;;;;;;5045661;28;20452;-71
2022/04/26 14:09:15;;;;;;;1.70;1.60;;;33.00;35.50;;;;;;5066541;28;20529;-70
2022/04/26 14:11:41;;;;;;;1.00;0.90;;;31.80;36.20;;;;;;5048662;28;20180;-72
2022/04/26 14:22:20;;;;;;;1.27;1.17;;;27.60;39.80;;;;;;5029977;28;20495;-70
2022/04/26 14:24:48;;;;;;;1.47;1.07;;;27.10;41.10;;;;;;5028919;28;20517;-70
2022/04/26 14:27:14;;;;;;;1.20;1.10;;;26.90;42.00;;;;;;5028472;28;20212;-70
2022/04/26 14:29:39;;;;;;;1.27;1.07;;;26.70;42.80;;;;;;5028494;28;20465;-70
2022/04/26 14:32:07;;;;;;;1.07;0.93;;;26.40;43.40;;;;;;5027591;28;20439;-70
2022/04/26 14:34:33;;;;;;;1.30;1.20;;;26.00;43.50;;;;;;5028655;28;20272;-70
2022/04/26 14:37:03;;;;;;;1.20;1.10;;;25.60;43.60;;;;;;5022041;28;20505;-71
2022/04/26 14:39:29;;;;;;;1.33;1.13;;;25.10;43.70;;;;;;5039259;28;20175;-71
2022/04/26 14:41:54;;;;;;;1.63;1.33;;;24.60;43.90;;;;;;5043793;28;20437;-71
2022/04/26 14:44:20;;;;;;;1.10;0.90;;;24.10;44.30;;;;;;5043323;28;20430;-70
2022/04/26 14:46:46;;;;;;;1.87;1.57;;;23.60;44.70;;;;;;5051711;28;20262;-71
2022/04/26 14:49:11;;;;;;;1.20;0.93;;;23.20;45.10;;;;;;5044584;28;20215;-69
2022/04/26 14:51:37;;;;;;;0.90;0.73;;;22.80;45.50;;;;;;5046685;28;20184;-72
2022/04/26 14:54:03;;;;;;;0.90;0.80;;;22.50;46.00;;;;;;5040464;28;20665;-70
2022/04/26 14:56:28;;;;;;;1.20;1.00;;;22.20;46.40;;;;;;5047699;28;20171;-71
2022/04/26 14:58:54;;;;;;;0.93;0.73;;;22.00;47.00;;;;;;5049049;28;20199;-72
2022/04/26 15:01:20;;;;;;;0.90;0.80;;;21.80;47.50;;;;;;5050779;28;20335;-71
2022/04/26 15:03:45;;;;;;;1.10;0.80;;;21.60;48.70;;;;;;5050830;28;20446;-71
2022/04/26 15:06:12;;;;;;;1.10;0.60;;;21.40;48.50;;;;;;5048659;28;20180;-71
2022/04/26 15:11:22;;;;;;;1.10;0.80;;;21.20;49.70;;;;;;5048434;28;20453;-69
2022/04/26 15:16:37;;;;;;;0.87;0.63;;;20.90;50.80;;;;;;5032341;28;20240;-69
2022/04/26 15:19:10;;;;;;;1.00;0.70;;;20.80;51.20;;;;;;5034522;28;20449;-70
2022/04/26 15:21:37;;;;;;;1.07;0.90;;;20.60;51.40;;;;;;5033484;28;20426;-70
2022/04/26 15:24:03;;;;;;;0.90;0.70;;;20.40;51.70;;;;;;5034183;28;20897;-70
2022/04/26 15:26:29;;;;;;;0.83;0.60;;;20.20;51.90;;;;;;5034369;28;20419;-70
2022/04/26 15:28:55;;;;;;;1.10;0.83;;;20.00;52.10;;;;;;5034125;28;20453;-69
2022/04/26 15:31:22;;;;;;;1.77;1.67;;;19.80;52.30;;;;;;5042196;28;20168;-70
2022/04/26 15:33:50;;;;;;;2.53;0.90;;;19.50;53.30;;;;;;5048235;28;20434;-69
2022/04/26 15:36:17;;;;;;;1.50;1.00;;;19.20;54.60;;;;;;5034811;28;20461;-70
2022/04/26 15:38:43;;;;;;;0.80;0.60;;;18.80;55.40;;;;;;5034114;28;20429;-70
2022/04/26 15:41:10;;;;;;;0.80;0.60;;;18.50;56.50;;;;;;5032788;28;20536;-70
2022/04/26 15:43:37;;;;;;;0.97;0.70;;;18.20;57.80;;;;;;5032315;28;20429;-70
2022/04/26 15:46:04;;;;;;;1.30;0.80;;;17.80;59.10;;;;;;5034033;28;20418;-70
2022/04/26 15:48:29;;;;;;;0.90;0.70;;;17.50;61.40;;;;;;5033893;28;20794;-71
2022/04/26 15:50:55;;;;;;;0.80;0.60;;;17.10;63.80;;;;;;5034185;28;20403;-71
2022/04/26 15:53:21;;;;;;;0.90;0.80;;;16.80;75.00;;;;;;5032772;28;20531;-71
2022/04/26 15:55:46;;;;;;;3.00;1.83;;;16.50;81.00;;;;;;5033817;28;20453;-71
2022/04/26 15:58:12;;;;;;;1.23;1.10;;;16.20;87.10;;;;;;5032506;28;20192;-72
2022/04/26 16:00:37;;;;;;;2.30;1.10;;;15.90;92.10;;;;;;5032582;28;20511;-71
2022/04/26 16:03:04;;;;;;;1.83;1.20;;;15.60;99.10;;;;;;5033810;28;20178;-70
2022/04/26 16:05:31;;;;;;;0.80;0.70;;;15.40;99.90;;;;;;5033649;28;20167;-70
2022/04/26 16:07:56;;;;;;;1.27;1.17;;;15.10;99.90;;;;;;5033618;28;20430;-70
2022/04/26 16:21:25;;;;;;;1.23;1.00;;;14.00;99.90;;;;;;5034037;28;20440;-70
2022/04/26 16:23:53;;;;;;;1.53;0.90;;;13.90;99.90;;;;;;5033306;28;20409;-72
2022/04/26 16:26:20;;;;;;;1.10;1.00;;;13.80;99.90;;;;;;5033535;28;20452;-72
2022/04/26 16:28:49;;;;;;;2.70;1.00;;;13.60;99.90;;;;;;5033500;28;20419;-71
2022/04/26 16:31:15;;;;;;;0.90;0.80;;;13.50;99.90;;;;;;5033558;28;20398;-71
2022/04/26 16:33:41;;;;;;;1.10;0.80;;;13.40;99.90;;;;;;5031819;28;20795;-70
2022/04/26 16:36:07;;;;;;;1.77;1.23;;;13.40;99.90;;;;;;5033507;28;20407;-70
2022/04/26 16:38:34;;;;;;;0.87;0.70;;;13.30;99.90;;;;;;5033513;28;20183;-72
2022/04/26 16:41:01;;;;;;;1.47;1.10;;;13.30;99.90;;;;;;5033319;28;20895;-72
2022/04/26 16:43:27;;;;;;;17.53;2.50;;;13.20;99.90;;;;;;5033253;28;20398;-72
2022/04/26 16:45:53;;;;;;;2.60;1.23;;;13.20;99.90;;;;;;5033249;28;20426;-70
2022/04/26 16:48:18;;;;;;;0.93;0.60;;;13.20;99.90;;;;;;5031960;28;20512;-71
2022/04/26 16:50:44;;;;;;;0.80;0.50;;;13.10;99.90;;;;;;5033363;28;20202;-71
2022/04/26 16:53:10;;;;;;;0.80;0.70;;;13.10;99.90;;;;;;5033195;28;20221;-71
2022/04/26 16:55:35;;;;;;;1.30;0.80;;;13.20;99.90;;;;;;5032510;28;20214;-71
2022/04/26 16:58:02;;;;;;;2.40;1.03;;;13.20;99.90;;;;;;5032606;28;20190;-71
2022/04/26 17:00:28;;;;;;;0.80;0.60;;;13.20;99.90;;;;;;5031526;28;20176;-71
2022/04/26 17:02:54;;;;;;;1.17;0.97;;;13.20;99.90;;;;;;5032216;28;20410;-70
2022/04/26 17:05:22;;;;;;;1.00;0.60;;;13.20;99.90;;;;;;5032598;28;20943;-70
2022/04/26 17:07:51;;;;;;;0.97;0.70;;;13.20;99.90;;;;;;5032901;28;20473;-71
2022/04/26 17:10:17;;;;;;;1.67;1.00;;;13.20;99.90;;;;;;5033112;28;20482;-71
2022/04/26 17:12:48;;;;;;;1.30;1.07;;;13.20;99.90;;;;;;5032800;28;20456;-71